Keswick, IA (50136)

7:12 AM CST on February 08, 2016 (GMT -0600)
Dietze Weather Station | | Change Station
CLOSE
Current Station
Personal Weather Station
Location: Millersburg, IA
Elevation: 883 ft
Nearby Weather Stations

Elev 883 ft 41.57 °N, 92.16 °W | Updated 7 seconds ago

Snow
Snow
16.7 °F
Feels Like 4 °F
N
11.2
Wind Variable Wind from NW
Gusts 15.0 mph

Today
High -- | Low -- °F
--% Chance of Precip.
Yesterday
High -- | Low -- °F
Precip. -- in
Pressure 29.85 in
Visibility 2.0 miles
Clouds Mostly Cloudy 800 ft
Mostly Cloudy 1400 ft
Overcast 2000 ft
Windchill 4 °F
Dew Point 8 °F
Humidity 68%
Rainfall 0.00 in
Snow Depth Not available.
7:13 AM 5:33 PM
Waning Crescent, 0% visible
METAR KOOA 081255Z AUTO 32023G28KT 2SM -SN BKN008 BKN014 OVC020 M08/M11 A2985 RMK AO2 VIS 1V4 T10851107
Pressure 29.85 in
Visibility 2.0 miles
Clouds Mostly Cloudy 800 ft
Mostly Cloudy 1400 ft
Overcast 2000 ft
Windchill 4 °F
Dew Point 8 °F
Humidity 68%
Rainfall 0.00 in
Snow Depth Not available.
7:13 AM 5:33 PM
Waning Crescent, 0% visible
METAR KOOA 081255Z AUTO 32023G28KT 2SM -SN BKN008 BKN014 OVC020 M08/M11 A2985 RMK AO2 VIS 1V4 T10851107

10-Day Weather Forecast

Almanac

Astronomy

Feb. 08, 2016 Rise Set
Actual Time
Civil Twilight
Nautical Twilight
Astronomical Twilight
Moon
Length of Visible Light
Length of Day
Tomorrow will be .
, % of the Moon is Illuminated

Today's Extremes

State Highs State Lows

Community

WunderPhotos

Upload Photos

1,891,434 photos uploaded!

WunderBlog® & News

Nearby

Air Quality

  Air Quality AQ Index Pollutant
Not available.

Snow Depth

Station Depth Elevation

Earthquake Activity

City Distance Mag. Time & Date
Minimum magnitude displayed is 2.5.

Coastal Water Temperatures

Place Temperature

Stations

Nearby Weather Stations

Station Location Temp. Windchill Dew Point Humidity Wind Precip. Elev Updated Type
                   

Watches & Warnings

There are currently no watches in effect.